createdAt,value
2016-08-25T00:00:44.709Z,76.82
2016-08-25T00:01:44.697Z,77.59
2016-08-25T00:02:44.703Z,77.4
2016-08-25T00:03:44.709Z,76.92
2016-08-25T00:04:44.711Z,76.73
2016-08-25T00:05:44.716Z,77.11
2016-08-25T00:06:44.715Z,77.88
2016-08-25T00:07:44.699Z,78.45
2016-08-25T00:08:44.701Z,77.88
2016-08-25T00:09:44.698Z,77.97
2016-08-25T00:10:44.691Z,78.64
2016-08-25T00:11:44.690Z,78.45
2016-08-25T00:12:44.689Z,77.97
2016-08-25T00:13:44.734Z,77.78
2016-08-25T00:14:44.675Z,77.97
2016-08-25T00:15:44.683Z,77.59
2016-08-25T00:16:44.668Z,78.27
2016-08-25T00:17:44.670Z,79.41
2016-08-25T00:18:44.666Z,78.99
2016-08-25T00:19:44.670Z,79.85
2016-08-25T00:20:44.642Z,79.85
2016-08-25T00:21:44.658Z,79.37
2016-08-25T00:22:44.645Z,79.57
2016-08-25T00:23:44.666Z,79.66
2016-08-25T00:24:44.647Z,80.14
2016-08-25T00:25:44.675Z,80.43
2016-08-25T00:26:44.624Z,80.33
2016-08-25T00:27:44.627Z,79.95
2016-08-25T00:28:45.345Z,79.47
2016-08-25T00:29:44.642Z,79.08
2016-08-25T00:30:44.622Z,80.04
2016-08-25T00:31:44.614Z,79.85
2016-08-25T00:32:44.627Z,80.14
2016-08-25T00:33:44.617Z,80.14
2016-08-25T00:34:44.609Z,80.14
2016-08-25T00:35:44.627Z,79.47
2016-08-25T00:36:44.622Z,79.57
2016-08-25T00:37:44.600Z,79.75
2016-08-25T00:38:44.600Z,80.24
2016-08-25T00:39:44.594Z,79.57
2016-08-25T00:40:44.610Z,79.66
2016-08-25T00:41:44.587Z,79.37
2016-08-25T00:42:44.573Z,79.28
2016-08-25T00:43:44.591Z,79.08
2016-08-25T00:44:44.591Z,79.75
2016-08-25T00:45:44.565Z,80.71
2016-08-25T00:46:44.562Z,80.14
2016-08-25T00:47:44.565Z,79.95
2016-08-25T00:48:44.573Z,79.28
2016-08-25T00:49:44.569Z,79.47
2016-08-25T00:50:44.561Z,78.8
2016-08-25T00:51:44.549Z,79.28
2016-08-25T00:52:44.561Z,79.47
2016-08-25T00:53:44.554Z,79.57
2016-08-25T00:54:44.547Z,80.04
2016-08-25T00:55:44.537Z,80.9
2016-08-25T00:56:44.558Z,81.2
2016-08-25T00:57:44.534Z,80.71
2016-08-25T00:58:44.544Z,80.71
2016-08-25T00:59:44.524Z,81
2016-08-25T01:00:44.525Z,81.29
2016-08-25T01:01:44.520Z,80.81
2016-08-25T01:02:44.514Z,80.33
2016-08-25T01:03:44.516Z,80.62
2016-08-25T01:04:44.525Z,80.14
2016-08-25T01:05:44.516Z,80.24
2016-08-25T01:06:44.516Z,80.43
2016-08-25T01:07:44.552Z,80.62
2016-08-25T01:08:44.500Z,81.2
2016-08-25T01:09:44.511Z,81.2
2016-08-25T01:10:44.484Z,80.52
2016-08-25T01:11:44.509Z,81.86
2016-08-25T01:12:44.490Z,82.15
2016-08-25T01:13:44.510Z,82.15
2016-08-25T01:14:45.222Z,81.77
2016-08-25T01:15:44.474Z,81.48
2016-08-25T01:16:44.488Z,81.25
2016-08-25T01:17:44.474Z,81.44
2016-08-25T01:18:44.495Z,81.82
2016-08-25T01:19:44.459Z,81.44
2016-08-25T01:20:44.459Z,81.67
2016-08-25T01:21:44.457Z,81.44
2016-08-25T01:22:44.447Z,81.15
2016-08-25T01:23:44.445Z,81.15
2016-08-25T01:24:44.444Z,81.92
2016-08-25T01:25:44.439Z,82.11
2016-08-25T01:26:44.450Z,82.15
2016-08-25T01:27:44.438Z,82.97
2016-08-25T01:28:44.422Z,82.97
2016-08-25T01:29:44.433Z,82.82
2016-08-25T01:30:44.435Z,82.4
2016-08-25T01:31:44.487Z,82.01
2016-08-25T01:32:44.417Z,82.01
2016-08-25T01:33:44.462Z,81.92
2016-08-25T01:34:44.408Z,82.3
2016-08-25T01:35:44.420Z,82.49
2016-08-25T01:36:44.421Z,82.4
2016-08-25T01:37:44.428Z,82.49
2016-08-25T01:38:44.395Z,82.68
2016-08-25T01:39:44.637Z,82.68
2016-08-25T01:40:44.402Z,82.97
2016-08-25T01:41:44.388Z,82.97
2016-08-25T01:42:44.376Z,83.64
2016-08-25T01:43:44.374Z,82.97
2016-08-25T01:44:44.379Z,83.26
2016-08-25T01:45:44.369Z,83.26
2016-08-25T01:46:44.364Z,82.4
2016-08-25T01:47:44.358Z,82.4
2016-08-25T01:48:44.354Z,82.49
2016-08-25T01:49:44.358Z,82.97
2016-08-25T01:50:44.348Z,82.49
2016-08-25T01:51:44.344Z,82.3
2016-08-25T01:52:44.337Z,82.3
2016-08-25T01:53:44.347Z,82.59
2016-08-25T01:54:44.339Z,82.97
2016-08-25T01:55:45.034Z,82.49
2016-08-25T01:56:44.325Z,82.97
2016-08-25T01:57:44.346Z,82.97
2016-08-25T01:58:44.325Z,82.68
2016-08-25T01:59:44.320Z,82.01
2016-08-25T02:00:44.308Z,82.78
2016-08-25T02:01:44.307Z,82.59
2016-08-25T02:02:44.314Z,82.59
2016-08-25T02:03:44.315Z,82.2
2016-08-25T02:04:44.316Z,82.68
2016-08-25T02:05:44.288Z,82.3
2016-08-25T02:06:44.291Z,82.11
2016-08-25T02:07:44.284Z,81.82
2016-08-25T02:08:44.282Z,82.2
2016-08-25T02:09:44.285Z,82.2
2016-08-25T02:10:44.276Z,82.01
2016-08-25T02:11:44.272Z,82.11
2016-08-25T02:12:44.268Z,81.92
2016-08-25T02:13:44.271Z,82.11
2016-08-25T02:14:44.269Z,81.92
2016-08-25T02:15:44.261Z,82.01
2016-08-25T02:16:44.256Z,82.01
2016-08-25T02:17:44.250Z,82.11
2016-08-25T02:18:44.252Z,82.3
2016-08-25T02:19:44.246Z,82.3
2016-08-25T02:20:44.239Z,82.59
2016-08-25T02:21:44.239Z,82.3
2016-08-25T02:22:44.239Z,82.4
2016-08-25T02:23:44.246Z,82.01
2016-08-25T02:24:44.224Z,81.92
2016-08-25T02:25:44.233Z,82.49
2016-08-25T02:26:44.219Z,82.59
2016-08-25T02:27:44.212Z,82.68
2016-08-25T02:28:44.212Z,82.59
2016-08-25T02:29:44.200Z,82.78
2016-08-25T02:30:44.215Z,82.78
2016-08-25T02:31:44.198Z,82.49
2016-08-25T02:32:44.205Z,82.68
2016-08-25T02:33:44.195Z,82.01
2016-08-25T02:34:44.184Z,82.4
2016-08-25T02:35:44.198Z,82.49
2016-08-25T02:36:44.186Z,82.49
2016-08-25T02:37:44.169Z,83.06
2016-08-25T02:38:44.173Z,83.45
2016-08-25T02:39:44.182Z,83.69
2016-08-25T02:40:44.173Z,83.6
2016-08-25T02:41:44.169Z,83.69
2016-08-25T02:42:44.152Z,83.69
2016-08-25T02:43:44.176Z,84.27
2016-08-25T02:44:44.149Z,84.36
2016-08-25T02:45:44.157Z,83.98
2016-08-25T02:46:44.136Z,83.98
2016-08-25T02:47:44.137Z,84.17
2016-08-25T02:48:44.135Z,83.89
2016-08-25T02:49:44.123Z,83.89
2016-08-25T02:50:44.146Z,84.46
2016-08-25T02:51:44.831Z,84.55
2016-08-25T02:52:44.126Z,84.08
2016-08-25T02:53:44.122Z,84.65
2016-08-25T02:54:44.106Z,84.84
2016-08-25T02:55:44.118Z,84.75
2016-08-25T02:56:44.111Z,83.89
2016-08-25T02:57:44.112Z,83.31
2016-08-25T02:58:44.093Z,83.79
2016-08-25T02:59:44.099Z,83.79
2016-08-25T03:00:44.084Z,83.69
2016-08-25T03:01:44.082Z,83.79
2016-08-25T03:02:44.096Z,83.4
2016-08-25T03:03:44.093Z,83.69
2016-08-25T03:04:44.078Z,84.17
2016-08-25T03:05:44.076Z,84.27
2016-08-25T03:06:44.070Z,84.46
2016-08-25T03:07:44.064Z,84.36
2016-08-25T03:08:44.057Z,84.55
2016-08-25T03:09:44.054Z,84.65
2016-08-25T03:10:44.043Z,84.84
2016-08-25T03:11:44.043Z,85.03
2016-08-25T03:12:44.032Z,84.17
2016-08-25T03:13:44.043Z,84.55
2016-08-25T03:14:44.050Z,83.98
2016-08-25T03:15:44.760Z,83.98
2016-08-25T03:16:44.023Z,84.27
2016-08-25T03:17:44.019Z,84.55
2016-08-25T03:18:44.027Z,84.17
2016-08-25T03:19:44.033Z,85.13
2016-08-25T03:20:44.050Z,85.03
2016-08-25T03:21:44.110Z,85.13
2016-08-25T03:22:44.006Z,85.71
2016-08-25T03:23:43.998Z,85.8
2016-08-25T03:24:44.701Z,85.47
2016-08-25T03:25:43.992Z,85.66
2016-08-25T03:26:43.995Z,85.75
2016-08-25T03:27:43.984Z,86.47
2016-08-25T03:28:43.991Z,86.23
2016-08-25T03:29:43.975Z,85.66
2016-08-25T03:30:43.984Z,85.75
2016-08-25T03:31:43.960Z,85.75
2016-08-25T03:32:43.954Z,85.85
2016-08-25T03:33:43.960Z,86.04
2016-08-25T03:34:43.968Z,86.04
2016-08-25T03:35:43.961Z,85.75
2016-08-25T03:36:43.955Z,85.75
2016-08-25T03:37:43.946Z,85.94
2016-08-25T03:38:43.937Z,86.8
2016-08-25T03:39:43.924Z,86.52
2016-08-25T03:40:43.935Z,86.71
2016-08-25T03:41:43.927Z,86.43
2016-08-25T03:42:43.911Z,86.9
2016-08-25T03:43:43.910Z,86.14
2016-08-25T03:44:43.915Z,86.04
2016-08-25T03:45:43.922Z,86.33
2016-08-25T03:46:43.908Z,86.43
2016-08-25T03:47:43.893Z,87
2016-08-25T03:48:43.902Z,86.52
2016-08-25T03:49:43.886Z,86.52
2016-08-25T03:50:44.032Z,86.33
2016-08-25T03:51:43.891Z,86.23
2016-08-25T03:52:43.882Z,87.38
2016-08-25T03:53:43.882Z,87.38
2016-08-25T03:54:43.879Z,87.09
2016-08-25T03:55:43.865Z,87.29
2016-08-25T03:56:43.865Z,86.61
2016-08-25T03:57:43.851Z,86.33
2016-08-25T03:58:43.847Z,86.8
2016-08-25T03:59:43.946Z,86.14
2016-08-25T04:00:43.834Z,86.14
2016-08-25T04:01:43.839Z,86.23
2016-08-25T04:02:43.826Z,86.8
2016-08-25T04:03:43.847Z,86.04
2016-08-25T04:04:43.819Z,86.04
2016-08-25T04:05:43.844Z,85.47
2016-08-25T04:06:43.832Z,85.38
2016-08-25T04:07:43.809Z,84.99
2016-08-25T04:08:43.812Z,84.99
2016-08-25T04:09:43.815Z,84.99
2016-08-25T04:10:43.813Z,84.99
2016-08-25T04:11:43.800Z,84.99
2016-08-25T04:12:43.811Z,85.09
2016-08-25T04:13:43.800Z,84.99
2016-08-25T04:14:43.782Z,84.99
2016-08-25T04:15:43.816Z,85.18
2016-08-25T04:16:43.782Z,85.57
2016-08-25T04:17:43.765Z,85.75
2016-08-25T04:18:43.760Z,85.66
2016-08-25T04:19:43.764Z,86.04
2016-08-25T04:20:43.763Z,86.14
2016-08-25T04:21:43.744Z,86.9
2016-08-25T04:22:43.768Z,86.43
2016-08-25T04:23:44.461Z,86.71
2016-08-25T04:24:43.730Z,86.71
2016-08-25T04:25:43.736Z,87.29
2016-08-25T04:26:43.732Z,87.38
2016-08-25T04:27:43.716Z,87.38
2016-08-25T04:28:43.728Z,87.38
2016-08-25T04:29:43.710Z,87
2016-08-25T04:30:43.707Z,87.48
2016-08-25T04:31:43.704Z,87.57
2016-08-25T04:32:43.717Z,87.66
2016-08-25T04:33:43.692Z,88.15
2016-08-25T04:34:43.691Z,87.76
2016-08-25T04:35:43.690Z,87.95
2016-08-25T04:36:43.686Z,87.95
2016-08-25T04:37:43.682Z,87.48
2016-08-25T04:38:43.682Z,87.48
2016-08-25T04:39:43.680Z,87.48
2016-08-25T04:40:43.672Z,87.57
2016-08-25T04:41:43.671Z,87.57
2016-08-25T04:42:43.661Z,88.15
2016-08-25T04:43:43.653Z,87.76
2016-08-25T04:44:43.663Z,87.57
2016-08-25T04:45:43.644Z,87.95
2016-08-25T04:46:43.636Z,88.15
2016-08-25T04:47:43.628Z,88.05
2016-08-25T04:48:43.636Z,87.76
2016-08-25T04:49:43.634Z,88.05
2016-08-25T04:50:43.613Z,87.38
2016-08-25T04:51:43.618Z,87.19
2016-08-25T04:52:43.617Z,87.66
2016-08-25T04:53:43.607Z,87.19
2016-08-25T04:54:43.612Z,86.8
2016-08-25T04:55:43.656Z,87.38
2016-08-25T04:56:43.603Z,87.29
2016-08-25T04:57:43.594Z,87.43
2016-08-25T04:58:43.579Z,86.76
2016-08-25T04:59:43.585Z,86.08
2016-08-25T05:00:43.596Z,85.8
2016-08-25T05:01:43.567Z,86.57
2016-08-25T05:02:43.570Z,86.18
2016-08-25T05:03:43.572Z,86.57
2016-08-25T05:04:43.571Z,86.57
2016-08-25T05:05:43.555Z,86.66
2016-08-25T05:06:43.543Z,86.85
2016-08-25T05:07:43.552Z,86.76
2016-08-25T05:08:43.551Z,86.76
2016-08-25T05:09:43.541Z,87.14
2016-08-25T05:10:43.527Z,87.62
2016-08-25T05:11:43.525Z,87.62
2016-08-25T05:12:43.538Z,87.43
2016-08-25T05:13:43.523Z,87.43
2016-08-25T05:14:43.535Z,87.62
2016-08-25T05:15:43.517Z,87.14
2016-08-25T05:16:43.502Z,87.23
2016-08-25T05:17:43.503Z,87.23
2016-08-25T05:18:43.510Z,87.43
2016-08-25T05:19:43.503Z,87.71
2016-08-25T05:20:43.490Z,87.43
2016-08-25T05:21:43.492Z,87.52
2016-08-25T05:22:43.476Z,87.52
2016-08-25T05:23:43.492Z,88.09
2016-08-25T05:24:43.491Z,88
2016-08-25T05:25:43.465Z,87.71
2016-08-25T05:26:43.465Z,88.09
2016-08-25T05:27:43.470Z,87.9
2016-08-25T05:28:43.459Z,87.81
2016-08-25T05:29:43.464Z,87.52
2016-08-25T05:30:43.459Z,87.62
2016-08-25T05:31:43.463Z,87.43
2016-08-25T05:32:43.449Z,87.14
2016-08-25T05:33:43.433Z,86.9
2016-08-25T05:34:43.435Z,86.32
2016-08-25T05:35:43.434Z,86.13
2016-08-25T05:36:43.421Z,86.22
2016-08-25T05:37:43.417Z,86.17
2016-08-25T05:38:43.421Z,85.75
2016-08-25T05:39:44.139Z,85.88
2016-08-25T05:40:43.423Z,85.98
2016-08-25T05:41:43.401Z,85.98
2016-08-25T05:42:43.397Z,85.41
2016-08-25T05:43:43.401Z,84.74
2016-08-25T05:44:43.429Z,85.12
2016-08-25T05:45:43.396Z,85.88
2016-08-25T05:46:43.403Z,85.79
2016-08-25T05:47:43.386Z,86.17
2016-08-25T05:48:43.385Z,86.17
2016-08-25T05:49:43.376Z,86.46
2016-08-25T05:50:43.394Z,88.18
2016-08-25T05:51:43.392Z,87.61
2016-08-25T05:52:43.363Z,87.23
2016-08-25T05:53:43.380Z,86.65
2016-08-25T05:54:43.360Z,86.36
2016-08-25T05:55:43.358Z,86.65
2016-08-25T05:56:43.371Z,86.17
2016-08-25T05:57:43.357Z,86.55
2016-08-25T05:58:43.354Z,86.46
2016-08-25T05:59:43.343Z,86.08
2016-08-25T06:00:43.331Z,85.88
2016-08-25T06:01:43.328Z,85.6
2016-08-25T06:02:43.327Z,85.54
2016-08-25T06:03:43.331Z,85.25
2016-08-25T06:04:43.340Z,85.45
2016-08-25T06:05:43.318Z,85.45
2016-08-25T06:06:43.313Z,85.45
2016-08-25T06:07:43.319Z,85.06
2016-08-25T06:08:43.310Z,84.88
2016-08-25T06:09:43.312Z,84.39
2016-08-25T06:10:43.309Z,84.39
2016-08-25T06:11:43.313Z,84.01
2016-08-25T06:12:43.296Z,84.2
2016-08-25T06:13:43.292Z,83.82
2016-08-25T06:14:43.295Z,83.58
2016-08-25T06:15:43.286Z,82.9
2016-08-25T06:16:43.287Z,82.81
2016-08-25T06:17:43.303Z,82.9
2016-08-25T06:18:43.290Z,81.85
2016-08-25T06:19:43.278Z,81.98
2016-08-25T06:20:43.279Z,81.7
2016-08-25T06:21:43.473Z,82.27
2016-08-25T06:22:43.271Z,81.98
2016-08-25T06:23:43.263Z,81.89
2016-08-25T06:24:43.277Z,80.64
2016-08-25T06:25:43.253Z,79.97
2016-08-25T06:26:43.259Z,80.01
2016-08-25T06:27:43.252Z,80.01
2016-08-25T06:28:43.259Z,79.63
2016-08-25T06:29:43.244Z,78.57
2016-08-25T06:30:43.241Z,78.47
2016-08-25T06:31:43.253Z,78.19
2016-08-25T06:32:43.258Z,77.9
2016-08-25T06:33:43.247Z,78.57
2016-08-25T06:34:43.229Z,77.9
2016-08-25T06:35:43.231Z,77.04
2016-08-25T06:36:43.237Z,76.65
2016-08-25T06:37:43.254Z,77.65
2016-08-25T06:38:43.225Z,78.09
2016-08-25T06:39:43.229Z,78.47
2016-08-25T06:40:43.214Z,79.53
2016-08-25T06:41:43.918Z,78.67
2016-08-25T06:42:43.208Z,78.86
2016-08-25T06:43:43.208Z,79.24
2016-08-25T06:44:43.638Z,80.58
2016-08-25T06:45:43.218Z,78.67
2016-08-25T06:46:43.216Z,78.86
2016-08-25T06:47:43.194Z,78.09
2016-08-25T06:48:43.223Z,78.42
2016-08-25T06:49:43.199Z,78.52
2016-08-25T06:50:43.194Z,77.46
2016-08-25T06:51:43.204Z,78.32
2016-08-25T06:52:43.202Z,78.13
2016-08-25T06:53:43.193Z,78.17
2016-08-25T06:54:43.182Z,78.36
2016-08-25T06:55:43.186Z,77.11
2016-08-25T06:56:43.182Z,75.57
2016-08-25T06:57:43.187Z,75.81
2016-08-25T06:58:43.191Z,74.65
2016-08-25T06:59:43.192Z,76.23
2016-08-25T07:00:43.176Z,74.79
2016-08-25T07:01:43.173Z,74.3
2016-08-25T07:02:43.183Z,75.69
2016-08-25T07:03:43.207Z,74.54
2016-08-25T07:04:43.174Z,73.96
2016-08-25T07:05:43.181Z,73.8
2016-08-25T07:06:43.179Z,74.09
2016-08-25T07:07:43.178Z,73.94
2016-08-25T07:08:43.185Z,73.3
2016-08-25T07:09:43.185Z,73.78
2016-08-25T07:10:43.184Z,71.37
2016-08-25T07:11:43.182Z,71.37
2016-08-25T07:12:43.180Z,69.48
2016-08-25T07:13:43.181Z,68.61
2016-08-25T07:14:43.171Z,68.35
2016-08-25T07:15:43.171Z,68.65
2016-08-25T07:16:43.892Z,65.3
2016-08-25T07:17:43.186Z,65.53
2016-08-25T07:18:43.184Z,65.24
2016-08-25T07:19:43.190Z,66.24
2016-08-25T07:20:43.173Z,64.69
2016-08-25T07:21:43.209Z,64.59
2016-08-25T07:22:43.169Z,64.82
2016-08-25T07:23:43.175Z,64.72
2016-08-25T07:24:43.197Z,62.82
2016-08-25T07:25:43.177Z,62.73
2016-08-25T07:26:43.187Z,63.69
2016-08-25T07:27:43.180Z,63.73
2016-08-25T07:28:43.226Z,63.43
2016-08-25T07:29:43.178Z,62.47
2016-08-25T07:30:43.179Z,61.98
2016-08-25T07:31:43.198Z,57.82
2016-08-25T07:32:43.182Z,59.47
2016-08-25T07:33:43.179Z,58.21
2016-08-25T07:34:43.199Z,59.76
2016-08-25T07:35:43.177Z,61.6
2016-08-25T07:36:43.186Z,60.82
2016-08-25T07:37:43.194Z,60.82
2016-08-25T07:38:43.195Z,59.15
2016-08-25T07:39:43.192Z,58.95
2016-08-25T07:40:43.230Z,59.15
2016-08-25T07:41:43.198Z,58.95
2016-08-25T07:42:43.192Z,57.38
2016-08-25T07:43:43.199Z,59.51
2016-08-25T07:44:43.202Z,60.76
2016-08-25T07:45:43.203Z,63.08
2016-08-25T07:46:43.194Z,64.34
2016-08-25T07:47:43.190Z,64.92
2016-08-25T07:48:43.203Z,64.72
2016-08-25T07:49:43.195Z,64.34
2016-08-25T07:50:43.197Z,65.2
2016-08-25T07:51:43.197Z,65.78
2016-08-25T07:52:43.207Z,62.89
2016-08-25T07:53:43.204Z,63.76
2016-08-25T07:54:43.209Z,65.01
2016-08-25T07:55:43.202Z,63.85
2016-08-25T07:56:43.200Z,62.4
2016-08-25T07:57:43.205Z,60.38
2016-08-25T07:58:43.213Z,62.47
2016-08-25T07:59:43.217Z,61.73
2016-08-25T08:00:43.271Z,63.37
2016-08-25T08:01:43.209Z,63.18
2016-08-25T08:02:43.207Z,59.7
2016-08-25T08:03:43.227Z,56.22
2016-08-25T08:04:43.216Z,56.22
2016-08-25T08:05:43.212Z,58.06
2016-08-25T08:06:43.228Z,56.61
2016-08-25T08:07:43.213Z,58.06
2016-08-25T08:08:43.230Z,59.22
2016-08-25T08:09:43.216Z,61.27
2016-08-25T08:10:43.214Z,60.86
2016-08-25T08:11:43.229Z,60.67
2016-08-25T08:12:43.408Z,57.6
2016-08-25T08:13:43.242Z,57.7
2016-08-25T08:14:43.236Z,59.53
2016-08-25T08:15:43.226Z,58.95
2016-08-25T08:16:43.243Z,57.7
2016-08-25T08:17:43.241Z,59.83
2016-08-25T08:18:43.239Z,60.6
2016-08-25T08:19:43.235Z,60.69
2016-08-25T08:20:43.231Z,59.15
2016-08-25T08:21:43.233Z,58.95
2016-08-25T08:22:43.234Z,56.73
2016-08-25T08:23:43.250Z,58.37
2016-08-25T08:24:43.249Z,58.8
2016-08-25T08:25:43.237Z,58.89
2016-08-25T08:26:43.251Z,58.6
2016-08-25T08:27:43.247Z,57.92
2016-08-25T08:28:43.271Z,58.21
2016-08-25T08:29:43.250Z,59.47
2016-08-25T08:30:43.251Z,58.31
2016-08-25T08:31:43.254Z,56.67
2016-08-25T08:32:43.265Z,59.66
2016-08-25T08:33:43.274Z,61.4
2016-08-25T08:34:43.259Z,60.37
2016-08-25T08:35:43.267Z,58.34
2016-08-25T08:36:43.275Z,57.76
2016-08-25T08:37:43.267Z,57.56
2016-08-25T08:38:43.279Z,57.66
2016-08-25T08:39:43.262Z,56.11
2016-08-25T08:40:43.262Z,57.95
2016-08-25T08:41:43.283Z,56.02
2016-08-25T08:42:43.281Z,52.82
2016-08-25T08:43:43.294Z,56.5
2016-08-25T08:44:43.276Z,56.79
2016-08-25T08:45:43.276Z,54.27
2016-08-25T08:46:43.277Z,53.31
2016-08-25T08:47:43.284Z,52.34
2016-08-25T08:48:43.287Z,51.95
2016-08-25T08:49:43.296Z,58.34
2016-08-25T08:50:43.291Z,55.63
2016-08-25T08:51:43.294Z,54.57
2016-08-25T08:52:43.291Z,53.59
2016-08-25T08:53:44.030Z,54.85
2016-08-25T08:54:43.295Z,53.59
2016-08-25T08:55:43.316Z,54.75
2016-08-25T08:56:43.298Z,57.37
2016-08-25T08:57:43.309Z,58.14
2016-08-25T08:58:43.317Z,55.63
2016-08-25T08:59:43.300Z,57.69
2016-08-25T09:00:43.308Z,55.15
2016-08-25T09:01:43.310Z,52.36
2016-08-25T09:02:43.308Z,52.24
2016-08-25T09:03:43.318Z,53.89
2016-08-25T09:04:43.326Z,55.92
2016-08-25T09:05:43.323Z,57.28
2016-08-25T09:06:43.322Z,56.52
2016-08-25T09:07:43.315Z,56.82
2016-08-25T09:08:43.329Z,54.79
2016-08-25T09:09:43.327Z,52.95
2016-08-25T09:10:43.329Z,53.23
2016-08-25T09:11:43.352Z,53.72
2016-08-25T09:12:43.411Z,59.63
2016-08-25T09:13:43.346Z,59.56
2016-08-25T09:14:43.338Z,55.98
2016-08-25T09:15:43.356Z,53.85
2016-08-25T09:16:43.371Z,50.74
2016-08-25T09:17:43.352Z,48.61
2016-08-25T09:18:43.363Z,50.43
2016-08-25T09:19:43.356Z,49.75
2016-08-25T09:20:43.351Z,55.07
2016-08-25T09:21:43.363Z,53.75
2016-08-25T09:22:43.378Z,53.75
2016-08-25T09:23:43.364Z,50.74
2016-08-25T09:24:43.356Z,54.69
2016-08-25T09:25:43.363Z,52.39
2016-08-25T09:26:43.375Z,50.94
2016-08-25T09:27:43.379Z,51.9
2016-08-25T09:28:43.368Z,51.81
2016-08-25T09:29:43.369Z,50.74
2016-08-25T09:30:43.391Z,50.45
2016-08-25T09:31:43.402Z,47.36
2016-08-25T09:32:43.390Z,49.49
2016-08-25T09:33:43.378Z,50.35
2016-08-25T09:34:43.381Z,52.2
2016-08-25T09:35:43.386Z,48.42
2016-08-25T09:36:43.384Z,46.39
2016-08-25T09:37:43.405Z,47.16
2016-08-25T09:38:43.406Z,49.68
2016-08-25T09:39:43.408Z,52
2016-08-25T09:40:43.405Z,50.45
2016-08-25T09:41:43.404Z,52.78
2016-08-25T09:42:43.414Z,50.35
2016-08-25T09:43:43.423Z,49.49
2016-08-25T09:44:43.426Z,47.64
2016-08-25T09:45:43.416Z,47.64
2016-08-25T09:46:43.408Z,47.55
2016-08-25T09:47:43.422Z,47.06
2016-08-25T09:48:43.436Z,49.77
2016-08-25T09:49:43.419Z,49
2016-08-25T09:50:43.420Z,46.77
2016-08-25T09:51:43.440Z,46.77
2016-08-25T09:52:43.439Z,46.58
2016-08-25T09:53:43.438Z,45.9
2016-08-25T09:54:43.455Z,44.84
2016-08-25T09:55:43.456Z,44.54
2016-08-25T09:56:43.462Z,44.26
2016-08-25T09:57:44.155Z,50.94
2016-08-25T09:58:43.442Z,50.48
2016-08-25T09:59:43.456Z,48.44
2016-08-25T10:00:43.460Z,49.51
2016-08-25T10:01:43.469Z,46.51
2016-08-25T10:02:43.471Z,44.76
2016-08-25T10:03:43.471Z,44.57
2016-08-25T10:04:43.466Z,42.44
2016-08-25T10:05:43.477Z,46.7
2016-08-25T10:06:43.482Z,50.77
2016-08-25T10:07:43.493Z,45.83
2016-08-25T10:08:43.478Z,43.5
2016-08-25T10:09:43.481Z,42.44
2016-08-25T10:10:43.495Z,43.02
2016-08-25T10:11:43.482Z,44.47
2016-08-25T10:12:44.197Z,42.82
2016-08-25T10:13:44.211Z,45.73
2016-08-25T10:14:43.498Z,49.61
2016-08-25T10:15:43.542Z,46.7
2016-08-25T10:16:43.500Z,44.47
2016-08-25T10:17:43.512Z,43.31
2016-08-25T10:18:43.526Z,47.28
2016-08-25T10:19:43.506Z,44.76
2016-08-25T10:20:43.508Z,42.44
2016-08-25T10:21:43.556Z,48.06
2016-08-25T10:22:43.517Z,46.41
2016-08-25T10:23:43.520Z,44.4
2016-08-25T10:24:43.518Z,44.67
2016-08-25T10:25:43.543Z,41.95
2016-08-25T10:26:43.522Z,44.47
2016-08-25T10:27:43.541Z,43.79
2016-08-25T10:28:43.533Z,42.36
2016-08-25T10:29:43.545Z,42.34
2016-08-25T10:30:43.601Z,45.15
2016-08-25T10:31:43.539Z,43.41
2016-08-25T10:32:43.563Z,44.67
2016-08-25T10:33:43.554Z,44.67
2016-08-25T10:34:43.562Z,47.77
2016-08-25T10:35:43.566Z,49.34
2016-08-25T10:36:43.554Z,46.82
2016-08-25T10:37:43.593Z,45.27
2016-08-25T10:38:43.576Z,41.97
2016-08-25T10:39:43.560Z,40.71
2016-08-25T10:40:43.573Z,40.69
2016-08-25T10:41:43.578Z,40.11
2016-08-25T10:42:43.588Z,49.61
2016-08-25T10:43:43.580Z,49.9
2016-08-25T10:44:43.590Z,46.99
2016-08-25T10:45:43.585Z,48.35
2016-08-25T10:46:43.590Z,46.24
2016-08-25T10:47:43.610Z,47.11
2016-08-25T10:48:43.615Z,49.73
2016-08-25T10:49:43.602Z,43.82
2016-08-25T10:50:43.592Z,46.04
2016-08-25T10:51:43.613Z,45.47
2016-08-25T10:52:44.323Z,44.78
2016-08-25T10:53:43.609Z,43.62
2016-08-25T10:54:43.633Z,42.17
2016-08-25T10:55:43.631Z,41.39
2016-08-25T10:56:43.626Z,41.88
2016-08-25T10:57:43.635Z,42.94
2016-08-25T10:58:43.617Z,42.07
2016-08-25T10:59:43.624Z,42.26
2016-08-25T11:00:43.633Z,43.23
2016-08-25T11:01:43.628Z,42.26
2016-08-25T11:02:43.645Z,49.63
2016-08-25T11:03:43.723Z,46.72
2016-08-25T11:04:43.649Z,44.98
2016-08-25T11:05:43.632Z,42.75
2016-08-25T11:06:43.640Z,42.65
2016-08-25T11:07:43.645Z,43.23
2016-08-25T11:08:43.650Z,43.33
2016-08-25T11:09:43.662Z,43.43
2016-08-25T11:10:43.671Z,43.62
2016-08-25T11:11:43.665Z,41.97
2016-08-25T11:12:43.684Z,44.01
2016-08-25T11:13:43.663Z,47.02
2016-08-25T11:14:43.667Z,43.52
2016-08-25T11:15:43.689Z,45.95
2016-08-25T11:16:43.679Z,45.68
2016-08-25T11:17:43.714Z,45.48
2016-08-25T11:18:43.693Z,43.64
2016-08-25T11:19:43.688Z,42.96
2016-08-25T11:20:43.694Z,47.62
2016-08-25T11:21:43.711Z,45
2016-08-25T11:22:43.698Z,43.84
2016-08-25T11:23:43.702Z,42.29
2016-08-25T11:24:43.723Z,42.96
2016-08-25T11:25:43.704Z,44.51
2016-08-25T11:26:43.733Z,42.96
2016-08-25T11:27:43.741Z,44.61
2016-08-25T11:28:43.733Z,44.9
2016-08-25T11:29:43.727Z,45.1
2016-08-25T11:30:43.732Z,44.42
2016-08-25T11:31:43.736Z,42.96
2016-08-25T11:32:43.753Z,43.84
2016-08-25T11:33:43.737Z,42.29
2016-08-25T11:34:43.738Z,43.26
2016-08-25T11:35:43.745Z,42.77
2016-08-25T11:36:43.743Z,45
2016-08-25T11:37:43.754Z,44.81
2016-08-25T11:38:43.753Z,43.16
2016-08-25T11:39:43.759Z,41.51
2016-08-25T11:40:43.762Z,40.92
2016-08-25T11:41:43.776Z,41.7
2016-08-25T11:42:43.775Z,39.47
2016-08-25T11:43:43.768Z,40.15
2016-08-25T11:45:43.788Z,42.67
2016-08-25T11:46:43.790Z,42.86
2016-08-25T11:47:43.788Z,43.35
2016-08-25T11:48:43.798Z,43.26
2016-08-25T11:49:43.830Z,42.48
2016-08-25T11:50:43.824Z,41.8
2016-08-25T11:51:43.917Z,42.29
2016-08-25T11:52:43.802Z,41.89
2016-08-25T11:53:43.804Z,42.29
2016-08-25T11:54:43.815Z,40.44
2016-08-25T11:55:43.816Z,39.57
2016-08-25T11:56:43.817Z,39.08
2016-08-25T11:57:43.851Z,39.37
2016-08-25T11:58:43.828Z,39.37
2016-08-25T11:59:43.827Z,39.47
2016-08-25T12:00:43.829Z,37.82
2016-08-25T12:01:43.835Z,36.36
2016-08-25T12:02:43.846Z,37.43
2016-08-25T12:03:43.858Z,37.81
2016-08-25T12:04:43.868Z,37.34
2016-08-25T12:05:43.872Z,36.27
2016-08-25T12:06:43.855Z,37.73
2016-08-25T12:07:43.863Z,37.43
2016-08-25T12:08:43.859Z,38.02
2016-08-25T12:09:43.870Z,37.73
2016-08-25T12:10:43.875Z,38.87
2016-08-25T12:12:43.961Z,40.83
2016-08-25T12:13:43.882Z,40.34
2016-08-25T12:14:43.897Z,40.25
2016-08-25T12:15:43.887Z,39.95
2016-08-25T12:16:43.913Z,38.5
2016-08-25T12:17:43.902Z,37.71
2016-08-25T12:18:43.894Z,37.71
2016-08-25T12:19:43.900Z,40.61
2016-08-25T12:20:43.913Z,41
2016-08-25T12:21:43.927Z,39.84
2016-08-25T12:22:43.903Z,37.9
2016-08-25T12:23:43.923Z,37.41
2016-08-25T12:24:43.919Z,37.9
2016-08-25T12:25:43.938Z,39.36
2016-08-25T12:26:43.921Z,40.81
2016-08-25T12:27:43.923Z,39.74
2016-08-25T12:28:43.928Z,39.18
2016-08-25T12:29:43.933Z,38.19
2016-08-25T12:30:43.948Z,38.78
2016-08-25T12:31:43.936Z,38.48
2016-08-25T12:32:43.956Z,38
2016-08-25T12:33:43.949Z,38.29
2016-08-25T12:34:43.977Z,37.81
2016-08-25T12:35:43.952Z,37.63
2016-08-25T12:36:43.957Z,39.65
2016-08-25T12:37:43.992Z,38.21
2016-08-25T12:38:43.970Z,37.63
2016-08-25T12:39:43.970Z,38.19
2016-08-25T12:40:43.984Z,37.81
2016-08-25T12:41:43.989Z,36.16
2016-08-25T12:42:43.992Z,35.67
2016-08-25T12:43:43.999Z,36.35
2016-08-25T12:44:44.015Z,36.16
2016-08-25T12:45:44.001Z,37.9
2016-08-25T12:46:44.083Z,37.73
2016-08-25T12:47:43.995Z,37.15
2016-08-25T12:48:44.001Z,37.24
2016-08-25T12:49:44.022Z,38.5
2016-08-25T12:50:44.025Z,37.82
2016-08-25T12:51:44.034Z,37.05
2016-08-25T12:52:44.031Z,35.88
2016-08-25T12:53:44.042Z,36.18
2016-08-25T12:54:44.043Z,37.15
2016-08-25T12:55:44.036Z,36.85
2016-08-25T12:56:44.035Z,38.31
2016-08-25T12:57:44.038Z,38.6
2016-08-25T12:58:44.039Z,37.94